Pagrindinis puslapis
METAR-TAF:

METAR-TAF

Oro uostai :

Tokijas Haneda, Japonija

platuma: 35-33N, ilguma: 139-47E, Aukštis: 5 m

Dabartinis oras

Ataskaita buvo paskelbta 26 minutes, ne 22:30 UTC
Vėjas 7 kt iš Pietų/Pietryčių
Temperatūra 22°C
Drėgmė 78%
Slėgis 1020 hPa
Matomumas 10 km arba daugiau
Mažai debesys ne aukštis 2000 ft
Su prošvaistėmis ne aukštis 19000 ft

METAR: RJTT 302230Z 16007KT 9999 FEW020 BKN190 22/18 Q1020 NOSIG RMK 1CU020 7AS190 A3013

Laikas: 07:56 (22:56 UTC)

Prognozė

Ataskaita buvo paskelbta 5 valandos ir 51 minutes, ne 17:05 UTC
Prognozė galioja nuo 30 metu 18 UTC su 01 metu 00 UTC
Vėjas 10 kt iš Pietų/Pietryčių
Matomumas 10 km arba daugiau
Mažai debesys ne aukštis 2000 ft

TAF: RJTT 301705Z 3018/0100 16010KT 9999 FEW020

Orai ataskaitas ir orų prognozės (METAR, TAF).

turimą stotys yra geltonos ir raudonos taškus žemėlapyje.

Perkelti pele per norėdami pamatyti stoties vardą.

Tada spustelėkite, norėdami matyti oro stebėjimo ir prognozės.

Norėdami pakeisti žemėlapį: spustelėkite ant žalios mygtukų su juodo kryžiaus žemyn,; žalią mygtuką su brūkšneliu, jei norite nutolinti; arba žalių rodyklių gretimoms žemėlapius.


METAR-TAF: